sensor_id;sensor_type;location;lat;lon;timestamp;P1;durP1;ratioP1;P2;durP2;ratioP2
51764;SDS011;37835;53.256;6.456;2023-05-07T00:01:48;33.50;;;24.00;;
51764;SDS011;37835;53.256;6.456;2023-05-07T00:04:14;32.55;;;25.33;;
51764;SDS011;37835;53.256;6.456;2023-05-07T00:06:39;35.67;;;24.55;;
51764;SDS011;37835;53.256;6.456;2023-05-07T00:09:05;31.30;;;24.33;;
51764;SDS011;37835;53.256;6.456;2023-05-07T00:11:32;36.70;;;25.67;;
51764;SDS011;37835;53.256;6.456;2023-05-07T00:13:58;37.13;;;25.65;;
51764;SDS011;37835;53.256;6.456;2023-05-07T00:16:24;34.58;;;24.65;;
51764;SDS011;37835;53.256;6.456;2023-05-07T00:18:49;34.92;;;25.55;;
51764;SDS011;37835;53.256;6.456;2023-05-07T00:21:15;35.97;;;26.08;;
51764;SDS011;37835;53.256;6.456;2023-05-07T00:23:41;37.30;;;25.88;;
51764;SDS011;37835;53.256;6.456;2023-05-07T00:26:06;37.40;;;26.05;;
51764;SDS011;37835;53.256;6.456;2023-05-07T00:28:32;38.92;;;25.45;;
51764;SDS011;37835;53.256;6.456;2023-05-07T00:30:57;36.58;;;25.33;;
51764;SDS011;37835;53.256;6.456;2023-05-07T00:33:23;35.22;;;26.35;;
51764;SDS011;37835;53.256;6.456;2023-05-07T00:35:49;36.65;;;26.95;;
51764;SDS011;37835;53.256;6.456;2023-05-07T00:38:15;35.63;;;26.98;;
51764;SDS011;37835;53.256;6.456;2023-05-07T00:40:40;36.70;;;27.55;;
51764;SDS011;37835;53.256;6.456;2023-05-07T00:43:06;40.65;;;26.73;;
51764;SDS011;37835;53.256;6.456;2023-05-07T00:45:32;40.78;;;29.02;;
51764;SDS011;37835;53.256;6.456;2023-05-07T00:47:59;38.97;;;28.02;;
51764;SDS011;37835;53.256;6.456;2023-05-07T00:50:26;43.67;;;30.00;;
51764;SDS011;37835;53.256;6.456;2023-05-07T00:52:52;38.10;;;29.23;;
51764;SDS011;37835;53.256;6.456;2023-05-07T00:55:18;41.00;;;29.70;;
51764;SDS011;37835;53.256;6.456;2023-05-07T00:57:44;46.95;;;29.33;;
51764;SDS011;37835;53.256;6.456;2023-05-07T01:00:10;46.72;;;30.42;;
51764;SDS011;37835;53.256;6.456;2023-05-07T01:02:40;39.33;;;29.83;;
51764;SDS011;37835;53.256;6.456;2023-05-07T01:05:07;43.95;;;30.80;;
51764;SDS011;37835;53.256;6.456;2023-05-07T01:07:36;45.72;;;31.05;;
51764;SDS011;37835;53.256;6.456;2023-05-07T01:10:04;43.10;;;30.83;;
51764;SDS011;37835;53.256;6.456;2023-05-07T01:12:31;44.22;;;31.42;;
51764;SDS011;37835;53.256;6.456;2023-05-07T01:14:57;47.63;;;30.75;;
51764;SDS011;37835;53.256;6.456;2023-05-07T01:17:23;45.13;;;31.45;;
51764;SDS011;37835;53.256;6.456;2023-05-07T01:19:49;42.42;;;30.92;;
51764;SDS011;37835;53.256;6.456;2023-05-07T01:22:17;43.97;;;31.42;;
51764;SDS011;37835;53.256;6.456;2023-05-07T01:24:53;46.65;;;30.42;;
51764;SDS011;37835;53.256;6.456;2023-05-07T01:27:21;43.47;;;31.17;;
51764;SDS011;37835;53.256;6.456;2023-05-07T01:29:46;42.63;;;31.33;;
51764;SDS011;37835;53.256;6.456;2023-05-07T01:32:12;45.25;;;32.85;;
51764;SDS011;37835;53.256;6.456;2023-05-07T01:34:38;43.90;;;31.05;;
51764;SDS011;37835;53.256;6.456;2023-05-07T01:37:05;48.00;;;32.50;;
51764;SDS011;37835;53.256;6.456;2023-05-07T01:39:31;45.90;;;33.67;;
51764;SDS011;37835;53.256;6.456;2023-05-07T01:41:57;48.22;;;33.53;;
51764;SDS011;37835;53.256;6.456;2023-05-07T01:44:24;46.53;;;33.70;;
51764;SDS011;37835;53.256;6.456;2023-05-07T01:46:51;43.60;;;32.85;;
51764;SDS011;37835;53.256;6.456;2023-05-07T01:49:17;48.63;;;34.65;;
51764;SDS011;37835;53.256;6.456;2023-05-07T01:51:43;47.92;;;33.03;;
51764;SDS011;37835;53.256;6.456;2023-05-07T01:54:09;44.60;;;33.15;;
51764;SDS011;37835;53.256;6.456;2023-05-07T01:56:34;43.17;;;31.23;;
51764;SDS011;37835;53.256;6.456;2023-05-07T01:59:00;40.42;;;28.45;;
51764;SDS011;37835;53.256;6.456;2023-05-07T02:01:27;41.88;;;30.88;;
51764;SDS011;37835;53.256;6.456;2023-05-07T02:03:52;42.30;;;31.17;;
51764;SDS011;37835;53.256;6.456;2023-05-07T02:06:18;42.90;;;30.35;;
51764;SDS011;37835;53.256;6.456;2023-05-07T02:08:44;38.42;;;29.67;;
51764;SDS011;37835;53.256;6.456;2023-05-07T02:11:10;43.90;;;30.40;;
51764;SDS011;37835;53.256;6.456;2023-05-07T02:13:36;41.13;;;30.45;;
51764;SDS011;37835;53.256;6.456;2023-05-07T02:16:01;43.53;;;29.75;;
51764;SDS011;37835;53.256;6.456;2023-05-07T02:18:27;38.90;;;29.35;;
51764;SDS011;37835;53.256;6.456;2023-05-07T02:20:53;42.65;;;30.38;;
51764;SDS011;37835;53.256;6.456;2023-05-07T02:23:19;42.03;;;30.35;;
51764;SDS011;37835;53.256;6.456;2023-05-07T02:25:44;42.88;;;30.73;;
51764;SDS011;37835;53.256;6.456;2023-05-07T02:28:11;42.95;;;29.80;;
51764;SDS011;37835;53.256;6.456;2023-05-07T02:30:36;45.95;;;31.27;;
51764;SDS011;37835;53.256;6.456;2023-05-07T02:33:02;42.97;;;30.52;;
51764;SDS011;37835;53.256;6.456;2023-05-07T02:35:28;42.58;;;30.25;;
51764;SDS011;37835;53.256;6.456;2023-05-07T02:37:54;45.25;;;30.60;;
51764;SDS011;37835;53.256;6.456;2023-05-07T02:40:19;43.60;;;30.55;;
51764;SDS011;37835;53.256;6.456;2023-05-07T02:42:45;42.42;;;29.65;;
51764;SDS011;37835;53.256;6.456;2023-05-07T02:45:10;46.15;;;30.42;;
51764;SDS011;37835;53.256;6.456;2023-05-07T02:47:36;44.22;;;30.75;;
51764;SDS011;37835;53.256;6.456;2023-05-07T02:50:02;43.00;;;30.75;;
51764;SDS011;37835;53.256;6.456;2023-05-07T02:52:28;43.92;;;30.35;;
51764;SDS011;37835;53.256;6.456;2023-05-07T02:54:54;45.83;;;31.75;;
51764;SDS011;37835;53.256;6.456;2023-05-07T02:57:20;44.97;;;32.85;;
51764;SDS011;37835;53.256;6.456;2023-05-07T02:59:45;46.20;;;33.63;;
51764;SDS011;37835;53.256;6.456;2023-05-07T03:02:11;43.58;;;32.42;;
51764;SDS011;37835;53.256;6.456;2023-05-07T03:04:36;52.38;;;34.70;;
51764;SDS011;37835;53.256;6.456;2023-05-07T03:07:02;50.92;;;35.40;;
51764;SDS011;37835;53.256;6.456;2023-05-07T03:09:28;49.28;;;35.05;;
51764;SDS011;37835;53.256;6.456;2023-05-07T03:11:53;49.05;;;34.92;;
51764;SDS011;37835;53.256;6.456;2023-05-07T03:14:19;49.05;;;35.28;;
51764;SDS011;37835;53.256;6.456;2023-05-07T03:16:45;46.88;;;34.08;;
51764;SDS011;37835;53.256;6.456;2023-05-07T03:19:10;51.90;;;36.58;;
51764;SDS011;37835;53.256;6.456;2023-05-07T03:21:36;46.30;;;33.42;;
51764;SDS011;37835;53.256;6.456;2023-05-07T03:24:02;51.75;;;34.47;;
51764;SDS011;37835;53.256;6.456;2023-05-07T03:26:27;49.97;;;33.42;;
51764;SDS011;37835;53.256;6.456;2023-05-07T03:28:53;47.58;;;31.70;;
51764;SDS011;37835;53.256;6.456;2023-05-07T03:31:18;48.17;;;32.83;;
51764;SDS011;37835;53.256;6.456;2023-05-07T03:33:54;44.53;;;31.60;;
51764;SDS011;37835;53.256;6.456;2023-05-07T03:36:21;49.83;;;32.55;;
51764;SDS011;37835;53.256;6.456;2023-05-07T03:38:47;41.55;;;29.92;;
51764;SDS011;37835;53.256;6.456;2023-05-07T03:41:13;42.92;;;30.58;;
51764;SDS011;37835;53.256;6.456;2023-05-07T03:43:39;45.13;;;32.05;;
51764;SDS011;37835;53.256;6.456;2023-05-07T03:46:05;49.53;;;32.83;;
51764;SDS011;37835;53.256;6.456;2023-05-07T03:48:30;43.65;;;29.92;;
51764;SDS011;37835;53.256;6.456;2023-05-07T03:50:57;48.35;;;32.80;;
51764;SDS011;37835;53.256;6.456;2023-05-07T03:53:23;48.65;;;33.28;;
51764;SDS011;37835;53.256;6.456;2023-05-07T03:55:48;43.03;;;29.17;;
51764;SDS011;37835;53.256;6.456;2023-05-07T03:58:14;48.92;;;32.00;;
51764;SDS011;37835;53.256;6.456;2023-05-07T04:00:40;44.25;;;30.95;;
51764;SDS011;37835;53.256;6.456;2023-05-07T04:03:06;44.58;;;32.35;;
51764;SDS011;37835;53.256;6.456;2023-05-07T04:05:32;46.08;;;31.48;;
51764;SDS011;37835;53.256;6.456;2023-05-07T04:07:58;43.78;;;30.02;;
51764;SDS011;37835;53.256;6.456;2023-05-07T04:10:24;41.67;;;29.88;;
51764;SDS011;37835;53.256;6.456;2023-05-07T04:12:50;44.55;;;31.13;;
51764;SDS011;37835;53.256;6.456;2023-05-07T04:15:16;45.67;;;31.00;;
51764;SDS011;37835;53.256;6.456;2023-05-07T04:17:41;46.55;;;30.30;;
51764;SDS011;37835;53.256;6.456;2023-05-07T04:20:10;43.92;;;30.50;;
51764;SDS011;37835;53.256;6.456;2023-05-07T04:22:39;45.63;;;29.95;;
51764;SDS011;37835;53.256;6.456;2023-05-07T04:25:05;44.70;;;29.95;;
51764;SDS011;37835;53.256;6.456;2023-05-07T04:27:31;45.80;;;31.02;;
51764;SDS011;37835;53.256;6.456;2023-05-07T04:29:57;41.08;;;30.85;;
51764;SDS011;37835;53.256;6.456;2023-05-07T04:32:23;45.72;;;32.83;;
51764;SDS011;37835;53.256;6.456;2023-05-07T04:34:50;41.88;;;30.20;;
51764;SDS011;37835;53.256;6.456;2023-05-07T04:37:15;46.53;;;32.20;;
51764;SDS011;37835;53.256;6.456;2023-05-07T04:39:41;46.63;;;29.92;;
51764;SDS011;37835;53.256;6.456;2023-05-07T04:42:06;45.75;;;31.42;;
51764;SDS011;37835;53.256;6.456;2023-05-07T04:44:34;45.63;;;33.05;;
51764;SDS011;37835;53.256;6.456;2023-05-07T04:47:01;47.45;;;32.30;;
51764;SDS011;37835;53.256;6.456;2023-05-07T04:49:27;45.20;;;30.88;;
51764;SDS011;37835;53.256;6.456;2023-05-07T04:51:53;43.85;;;29.95;;
51764;SDS011;37835;53.256;6.456;2023-05-07T04:54:18;40.42;;;29.20;;
51764;SDS011;37835;53.256;6.456;2023-05-07T04:56:44;36.47;;;27.08;;
51764;SDS011;37835;53.256;6.456;2023-05-07T04:59:09;41.13;;;29.20;;
51764;SDS011;37835;53.256;6.456;2023-05-07T05:01:35;39.63;;;29.63;;
51764;SDS011;37835;53.256;6.456;2023-05-07T05:04:01;42.83;;;29.63;;
51764;SDS011;37835;53.256;6.456;2023-05-07T05:06:26;40.05;;;29.00;;
51764;SDS011;37835;53.256;6.456;2023-05-07T05:08:52;43.25;;;29.75;;
51764;SDS011;37835;53.256;6.456;2023-05-07T05:11:17;43.03;;;29.00;;
51764;SDS011;37835;53.256;6.456;2023-05-07T05:13:43;41.55;;;28.67;;
51764;SDS011;37835;53.256;6.456;2023-05-07T05:16:08;43.05;;;29.58;;
51764;SDS011;37835;53.256;6.456;2023-05-07T05:18:34;40.05;;;28.95;;
51764;SDS011;37835;53.256;6.456;2023-05-07T05:21:00;40.65;;;28.75;;
51764;SDS011;37835;53.256;6.456;2023-05-07T05:23:27;36.83;;;28.60;;
51764;SDS011;37835;53.256;6.456;2023-05-07T05:25:55;37.05;;;28.15;;
51764;SDS011;37835;53.256;6.456;2023-05-07T05:28:22;43.83;;;28.73;;
51764;SDS011;37835;53.256;6.456;2023-05-07T05:30:48;37.70;;;28.40;;
51764;SDS011;37835;53.256;6.456;2023-05-07T05:33:14;35.67;;;27.02;;
51764;SDS011;37835;53.256;6.456;2023-05-07T05:35:40;38.05;;;27.50;;
51764;SDS011;37835;53.256;6.456;2023-05-07T05:38:05;41.63;;;28.90;;
51764;SDS011;37835;53.256;6.456;2023-05-07T05:40:31;39.40;;;27.05;;
51764;SDS011;37835;53.256;6.456;2023-05-07T05:42:57;39.47;;;27.63;;
51764;SDS011;37835;53.256;6.456;2023-05-07T05:45:22;36.90;;;26.75;;
51764;SDS011;37835;53.256;6.456;2023-05-07T05:47:48;39.08;;;28.20;;
51764;SDS011;37835;53.256;6.456;2023-05-07T05:50:14;38.08;;;27.23;;
51764;SDS011;37835;53.256;6.456;2023-05-07T05:52:39;35.45;;;25.92;;
51764;SDS011;37835;53.256;6.456;2023-05-07T05:55:06;41.00;;;27.77;;
51764;SDS011;37835;53.256;6.456;2023-05-07T05:57:31;35.00;;;25.52;;
51764;SDS011;37835;53.256;6.456;2023-05-07T05:59:57;38.38;;;27.02;;
51764;SDS011;37835;53.256;6.456;2023-05-07T06:02:23;40.33;;;27.77;;
51764;SDS011;37835;53.256;6.456;2023-05-07T06:04:48;39.30;;;27.17;;
51764;SDS011;37835;53.256;6.456;2023-05-07T06:07:14;38.65;;;27.70;;
51764;SDS011;37835;53.256;6.456;2023-05-07T06:09:39;39.33;;;27.42;;
51764;SDS011;37835;53.256;6.456;2023-05-07T06:12:05;38.55;;;26.98;;
51764;SDS011;37835;53.256;6.456;2023-05-07T06:14:31;31.92;;;25.30;;
51764;SDS011;37835;53.256;6.456;2023-05-07T06:16:56;37.00;;;26.77;;
51764;SDS011;37835;53.256;6.456;2023-05-07T06:19:22;37.30;;;27.05;;
51764;SDS011;37835;53.256;6.456;2023-05-07T06:21:49;37.17;;;27.50;;
51764;SDS011;37835;53.256;6.456;2023-05-07T06:24:15;34.15;;;25.60;;
51764;SDS011;37835;53.256;6.456;2023-05-07T06:26:40;38.72;;;27.10;;
51764;SDS011;37835;53.256;6.456;2023-05-07T06:29:06;34.72;;;26.15;;
51764;SDS011;37835;53.256;6.456;2023-05-07T06:31:31;33.95;;;26.48;;
51764;SDS011;37835;53.256;6.456;2023-05-07T06:33:57;35.17;;;26.95;;
51764;SDS011;37835;53.256;6.456;2023-05-07T06:36:24;33.67;;;25.35;;
51764;SDS011;37835;53.256;6.456;2023-05-07T06:38:49;35.70;;;27.75;;
51764;SDS011;37835;53.256;6.456;2023-05-07T06:41:15;37.42;;;26.40;;
51764;SDS011;37835;53.256;6.456;2023-05-07T06:43:40;35.72;;;27.30;;
51764;SDS011;37835;53.256;6.456;2023-05-07T06:46:06;35.72;;;27.70;;
51764;SDS011;37835;53.256;6.456;2023-05-07T06:48:31;35.67;;;27.20;;
51764;SDS011;37835;53.256;6.456;2023-05-07T06:50:57;35.67;;;27.70;;
51764;SDS011;37835;53.256;6.456;2023-05-07T06:53:23;34.95;;;27.20;;
51764;SDS011;37835;53.256;6.456;2023-05-07T06:55:49;38.72;;;29.92;;
51764;SDS011;37835;53.256;6.456;2023-05-07T06:58:15;38.63;;;29.42;;
51764;SDS011;37835;53.256;6.456;2023-05-07T07:00:40;38.63;;;29.08;;
51764;SDS011;37835;53.256;6.456;2023-05-07T07:03:06;42.30;;;29.50;;
51764;SDS011;37835;53.256;6.456;2023-05-07T07:05:32;38.85;;;29.70;;
51764;SDS011;37835;53.256;6.456;2023-05-07T07:07:57;36.25;;;28.38;;
51764;SDS011;37835;53.256;6.456;2023-05-07T07:10:23;43.53;;;29.58;;
51764;SDS011;37835;53.256;6.456;2023-05-07T07:12:49;37.85;;;28.80;;
51764;SDS011;37835;53.256;6.456;2023-05-07T07:15:15;38.20;;;27.95;;
51764;SDS011;37835;53.256;6.456;2023-05-07T07:17:41;37.75;;;27.85;;
51764;SDS011;37835;53.256;6.456;2023-05-07T07:20:07;37.35;;;28.15;;
51764;SDS011;37835;53.256;6.456;2023-05-07T07:22:33;34.22;;;27.05;;
51764;SDS011;37835;53.256;6.456;2023-05-07T07:24:59;34.88;;;25.67;;
51764;SDS011;37835;53.256;6.456;2023-05-07T07:27:25;34.53;;;26.13;;
51764;SDS011;37835;53.256;6.456;2023-05-07T07:29:50;33.35;;;26.20;;
51764;SDS011;37835;53.256;6.456;2023-05-07T07:32:16;33.05;;;25.55;;
51764;SDS011;37835;53.256;6.456;2023-05-07T07:34:41;32.15;;;25.05;;
51764;SDS011;37835;53.256;6.456;2023-05-07T07:37:07;34.80;;;25.33;;
51764;SDS011;37835;53.256;6.456;2023-05-07T07:39:33;37.85;;;25.55;;
51764;SDS011;37835;53.256;6.456;2023-05-07T07:41:58;33.25;;;24.98;;
51764;SDS011;37835;53.256;6.456;2023-05-07T07:44:24;35.58;;;25.73;;
51764;SDS011;37835;53.256;6.456;2023-05-07T07:46:50;33.17;;;25.73;;
51764;SDS011;37835;53.256;6.456;2023-05-07T07:49:16;32.17;;;24.83;;
51764;SDS011;37835;53.256;6.456;2023-05-07T07:51:42;34.80;;;24.92;;
51764;SDS011;37835;53.256;6.456;2023-05-07T07:54:08;35.88;;;25.77;;
51764;SDS011;37835;53.256;6.456;2023-05-07T07:56:34;37.95;;;26.63;;
51764;SDS011;37835;53.256;6.456;2023-05-07T07:59:00;35.63;;;25.02;;
51764;SDS011;37835;53.256;6.456;2023-05-07T08:01:25;38.58;;;25.95;;
51764;SDS011;37835;53.256;6.456;2023-05-07T08:03:52;33.08;;;24.75;;
51764;SDS011;37835;53.256;6.456;2023-05-07T08:06:17;36.17;;;26.45;;
51764;SDS011;37835;53.256;6.456;2023-05-07T08:08:43;34.50;;;25.83;;
51764;SDS011;37835;53.256;6.456;2023-05-07T08:11:09;37.42;;;26.75;;
51764;SDS011;37835;53.256;6.456;2023-05-07T08:13:35;33.60;;;25.23;;
51764;SDS011;37835;53.256;6.456;2023-05-07T08:16:02;35.03;;;26.17;;
51764;SDS011;37835;53.256;6.456;2023-05-07T08:18:28;37.67;;;25.98;;
51764;SDS011;37835;53.256;6.456;2023-05-07T08:20:54;35.00;;;24.77;;
51764;SDS011;37835;53.256;6.456;2023-05-07T08:23:20;36.47;;;26.17;;
51764;SDS011;37835;53.256;6.456;2023-05-07T08:25:46;37.55;;;26.30;;
51764;SDS011;37835;53.256;6.456;2023-05-07T08:28:11;31.67;;;25.45;;
51764;SDS011;37835;53.256;6.456;2023-05-07T08:30:37;35.55;;;25.13;;
51764;SDS011;37835;53.256;6.456;2023-05-07T08:33:02;35.45;;;25.73;;
51764;SDS011;37835;53.256;6.456;2023-05-07T08:35:28;36.67;;;26.13;;
51764;SDS011;37835;53.256;6.456;2023-05-07T08:37:54;36.45;;;26.98;;
51764;SDS011;37835;53.256;6.456;2023-05-07T08:40:20;35.45;;;26.05;;
51764;SDS011;37835;53.256;6.456;2023-05-07T08:42:50;32.63;;;24.38;;
51764;SDS011;37835;53.256;6.456;2023-05-07T08:45:17;36.53;;;25.90;;
51764;SDS011;37835;53.256;6.456;2023-05-07T08:47:46;33.63;;;25.35;;
51764;SDS011;37835;53.256;6.456;2023-05-07T08:50:15;34.97;;;25.58;;
51764;SDS011;37835;53.256;6.456;2023-05-07T08:52:41;36.15;;;24.77;;
51764;SDS011;37835;53.256;6.456;2023-05-07T08:55:07;33.70;;;24.95;;
51764;SDS011;37835;53.256;6.456;2023-05-07T08:57:34;35.10;;;25.67;;
51764;SDS011;37835;53.256;6.456;2023-05-07T08:59:59;36.65;;;26.13;;
51764;SDS011;37835;53.256;6.456;2023-05-07T09:02:25;31.80;;;24.45;;
51764;SDS011;37835;53.256;6.456;2023-05-07T09:04:51;33.22;;;24.95;;
51764;SDS011;37835;53.256;6.456;2023-05-07T09:07:18;34.00;;;26.13;;
51764;SDS011;37835;53.256;6.456;2023-05-07T09:09:44;35.53;;;25.38;;
51764;SDS011;37835;53.256;6.456;2023-05-07T09:12:11;34.97;;;25.52;;
51764;SDS011;37835;53.256;6.456;2023-05-07T09:14:36;28.95;;;22.92;;
51764;SDS011;37835;53.256;6.456;2023-05-07T09:17:02;33.58;;;23.95;;
51764;SDS011;37835;53.256;6.456;2023-05-07T09:19:28;28.65;;;23.48;;
51764;SDS011;37835;53.256;6.456;2023-05-07T09:21:58;33.75;;;24.60;;
51764;SDS011;37835;53.256;6.456;2023-05-07T09:24:28;32.15;;;24.80;;
51764;SDS011;37835;53.256;6.456;2023-05-07T09:26:58;31.98;;;24.67;;
51764;SDS011;37835;53.256;6.456;2023-05-07T09:29:25;32.13;;;24.15;;
51764;SDS011;37835;53.256;6.456;2023-05-07T09:31:51;32.22;;;24.08;;
51764;SDS011;37835;53.256;6.456;2023-05-07T09:34:16;32.50;;;24.38;;
51764;SDS011;37835;53.256;6.456;2023-05-07T09:36:42;32.03;;;23.92;;
51764;SDS011;37835;53.256;6.456;2023-05-07T09:39:08;31.65;;;24.40;;
51764;SDS011;37835;53.256;6.456;2023-05-07T09:41:36;32.50;;;24.17;;
51764;SDS011;37835;53.256;6.456;2023-05-07T09:44:09;33.15;;;24.70;;
51764;SDS011;37835;53.256;6.456;2023-05-07T09:46:34;30.52;;;23.90;;
51764;SDS011;37835;53.256;6.456;2023-05-07T09:49:03;31.67;;;24.27;;
51764;SDS011;37835;53.256;6.456;2023-05-07T09:51:41;31.00;;;24.33;;
51764;SDS011;37835;53.256;6.456;2023-05-07T09:54:12;30.15;;;24.60;;
51764;SDS011;37835;53.256;6.456;2023-05-07T09:56:38;29.83;;;23.90;;
51764;SDS011;37835;53.256;6.456;2023-05-07T09:59:06;33.20;;;24.23;;
51764;SDS011;37835;53.256;6.456;2023-05-07T10:01:33;29.88;;;22.92;;
51764;SDS011;37835;53.256;6.456;2023-05-07T10:04:02;29.65;;;22.75;;
51764;SDS011;37835;53.256;6.456;2023-05-07T10:06:33;30.00;;;23.67;;
51764;SDS011;37835;53.256;6.456;2023-05-07T10:09:00;27.50;;;23.08;;
51764;SDS011;37835;53.256;6.456;2023-05-07T10:11:27;28.30;;;22.60;;
51764;SDS011;37835;53.256;6.456;2023-05-07T10:13:54;30.50;;;23.02;;
51764;SDS011;37835;53.256;6.456;2023-05-07T10:16:20;31.02;;;24.20;;
51764;SDS011;37835;53.256;6.456;2023-05-07T10:18:46;28.88;;;22.05;;
51764;SDS011;37835;53.256;6.456;2023-05-07T10:23:44;28.25;;;22.42;;
51764;SDS011;37835;53.256;6.456;2023-05-07T10:26:12;28.88;;;21.33;;
51764;SDS011;37835;53.256;6.456;2023-05-07T10:28:41;29.50;;;22.15;;
51764;SDS011;37835;53.256;6.456;2023-05-07T10:34:09;27.48;;;21.58;;
51764;SDS011;37835;53.256;6.456;2023-05-07T10:36:38;26.30;;;20.58;;
51764;SDS011;37835;53.256;6.456;2023-05-07T10:39:04;25.27;;;20.60;;
51764;SDS011;37835;53.256;6.456;2023-05-07T10:41:31;28.30;;;21.95;;
51764;SDS011;37835;53.256;6.456;2023-05-07T10:43:56;24.38;;;19.85;;
51764;SDS011;37835;53.256;6.456;2023-05-07T10:46:22;25.23;;;19.60;;
51764;SDS011;37835;53.256;6.456;2023-05-07T10:51:27;26.33;;;21.20;;
51764;SDS011;37835;53.256;6.456;2023-05-07T10:54:36;25.20;;;21.15;;
51764;SDS011;37835;53.256;6.456;2023-05-07T10:56:43;27.67;;;21.13;;
51764;SDS011;37835;53.256;6.456;2023-05-07T11:04:23;27.98;;;21.77;;
51764;SDS011;37835;53.256;6.456;2023-05-07T11:12:16;24.75;;;20.63;;
51764;SDS011;37835;53.256;6.456;2023-05-07T11:14:45;25.38;;;19.42;;
51764;SDS011;37835;53.256;6.456;2023-05-07T11:17:11;25.63;;;21.70;;
51764;SDS011;37835;53.256;6.456;2023-05-07T11:19:49;23.95;;;19.50;;
51764;SDS011;37835;53.256;6.456;2023-05-07T11:25:00;25.65;;;19.08;;
51764;SDS011;37835;53.256;6.456;2023-05-07T11:27:26;20.48;;;18.27;;
51764;SDS011;37835;53.256;6.456;2023-05-07T11:29:52;20.73;;;17.63;;
51764;SDS011;37835;53.256;6.456;2023-05-07T11:32:24;20.08;;;17.65;;
51764;SDS011;37835;53.256;6.456;2023-05-07T11:34:54;20.33;;;18.15;;
51764;SDS011;37835;53.256;6.456;2023-05-07T11:37:21;21.15;;;17.50;;
51764;SDS011;37835;53.256;6.456;2023-05-07T11:39:48;20.08;;;17.90;;
51764;SDS011;37835;53.256;6.456;2023-05-07T11:42:30;19.27;;;17.20;;
51764;SDS011;37835;53.256;6.456;2023-05-07T11:45:00;20.35;;;17.67;;
51764;SDS011;37835;53.256;6.456;2023-05-07T11:47:26;22.13;;;17.05;;
51764;SDS011;37835;53.256;6.456;2023-05-07T11:49:55;19.70;;;17.38;;
51764;SDS011;37835;53.256;6.456;2023-05-07T11:52:21;18.98;;;16.27;;
51764;SDS011;37835;53.256;6.456;2023-05-07T11:54:49;19.02;;;17.02;;
51764;SDS011;37835;53.256;6.456;2023-05-07T11:57:19;18.83;;;16.42;;
51764;SDS011;37835;53.256;6.456;2023-05-07T11:59:46;18.98;;;16.23;;
51764;SDS011;37835;53.256;6.456;2023-05-07T12:02:16;16.95;;;15.15;;
51764;SDS011;37835;53.256;6.456;2023-05-07T12:04:42;18.55;;;16.65;;
51764;SDS011;37835;53.256;6.456;2023-05-07T12:07:14;18.27;;;16.23;;
51764;SDS011;37835;53.256;6.456;2023-05-07T12:12:06;17.35;;;15.55;;
51764;SDS011;37835;53.256;6.456;2023-05-07T12:14:32;16.15;;;14.55;;
51764;SDS011;37835;53.256;6.456;2023-05-07T12:17:01;16.45;;;14.63;;
51764;SDS011;37835;53.256;6.456;2023-05-07T12:19:28;16.92;;;15.13;;
51764;SDS011;37835;53.256;6.456;2023-05-07T12:21:55;18.15;;;15.25;;
51764;SDS011;37835;53.256;6.456;2023-05-07T12:24:21;17.75;;;15.95;;
51764;SDS011;37835;53.256;6.456;2023-05-07T12:26:47;21.38;;;14.90;;
51764;SDS011;37835;53.256;6.456;2023-05-07T12:29:13;15.88;;;14.18;;
51764;SDS011;37835;53.256;6.456;2023-05-07T12:31:42;20.60;;;15.10;;
51764;SDS011;37835;53.256;6.456;2023-05-07T12:34:10;16.45;;;14.80;;
51764;SDS011;37835;53.256;6.456;2023-05-07T12:36:39;15.55;;;13.95;;
51764;SDS011;37835;53.256;6.456;2023-05-07T12:39:06;15.77;;;14.23;;
51764;SDS011;37835;53.256;6.456;2023-05-07T12:41:35;16.25;;;13.77;;
51764;SDS011;37835;53.256;6.456;2023-05-07T12:44:18;16.40;;;14.75;;
51764;SDS011;37835;53.256;6.456;2023-05-07T12:46:43;15.88;;;14.27;;
51764;SDS011;37835;53.256;6.456;2023-05-07T12:49:11;15.10;;;13.60;;
51764;SDS011;37835;53.256;6.456;2023-05-07T12:51:37;16.95;;;14.52;;
51764;SDS011;37835;53.256;6.456;2023-05-07T12:54:03;16.17;;;14.50;;
51764;SDS011;37835;53.256;6.456;2023-05-07T12:56:30;15.63;;;14.00;;
51764;SDS011;37835;53.256;6.456;2023-05-07T12:58:59;18.15;;;13.95;;
51764;SDS011;37835;53.256;6.456;2023-05-07T13:01:28;15.35;;;13.77;;
51764;SDS011;37835;53.256;6.456;2023-05-07T13:03:55;15.32;;;13.73;;
51764;SDS011;37835;53.256;6.456;2023-05-07T13:06:25;15.68;;;14.07;;
51764;SDS011;37835;53.256;6.456;2023-05-07T13:08:51;14.48;;;12.98;;
51764;SDS011;37835;53.256;6.456;2023-05-07T13:11:16;15.73;;;13.93;;
51764;SDS011;37835;53.256;6.456;2023-05-07T13:13:42;15.43;;;13.80;;
51764;SDS011;37835;53.256;6.456;2023-05-07T13:16:08;14.65;;;13.15;;
51764;SDS011;37835;53.256;6.456;2023-05-07T13:18:36;13.88;;;12.50;;
51764;SDS011;37835;53.256;6.456;2023-05-07T13:21:03;14.30;;;12.80;;
51764;SDS011;37835;53.256;6.456;2023-05-07T13:23:29;15.23;;;12.70;;
51764;SDS011;37835;53.256;6.456;2023-05-07T13:25:55;14.95;;;13.52;;
51764;SDS011;37835;53.256;6.456;2023-05-07T13:28:21;14.85;;;13.45;;
51764;SDS011;37835;53.256;6.456;2023-05-07T13:30:48;14.93;;;13.48;;
51764;SDS011;37835;53.256;6.456;2023-05-07T13:33:14;15.05;;;13.50;;
51764;SDS011;37835;53.256;6.456;2023-05-07T13:35:41;14.88;;;13.30;;
51764;SDS011;37835;53.256;6.456;2023-05-07T13:38:06;16.45;;;14.88;;
51764;SDS011;37835;53.256;6.456;2023-05-07T13:40:33;15.60;;;14.02;;
51764;SDS011;37835;53.256;6.456;2023-05-07T13:42:58;15.75;;;14.25;;
51764;SDS011;37835;53.256;6.456;2023-05-07T13:45:26;17.65;;;15.65;;
51764;SDS011;37835;53.256;6.456;2023-05-07T13:47:54;19.33;;;14.85;;
51764;SDS011;37835;53.256;6.456;2023-05-07T13:50:20;20.02;;;14.98;;
51764;SDS011;37835;53.256;6.456;2023-05-07T13:52:45;16.50;;;14.45;;
51764;SDS011;37835;53.256;6.456;2023-05-07T13:55:16;15.35;;;13.80;;
51764;SDS011;37835;53.256;6.456;2023-05-07T13:57:42;17.90;;;14.27;;
51764;SDS011;37835;53.256;6.456;2023-05-07T14:00:08;15.50;;;14.00;;
51764;SDS011;37835;53.256;6.456;2023-05-07T14:02:34;15.27;;;13.70;;
51764;SDS011;37835;53.256;6.456;2023-05-07T14:05:00;14.40;;;12.73;;
51764;SDS011;37835;53.256;6.456;2023-05-07T14:07:25;15.23;;;13.65;;
51764;SDS011;37835;53.256;6.456;2023-05-07T14:09:51;15.52;;;14.02;;
51764;SDS011;37835;53.256;6.456;2023-05-07T14:12:16;15.43;;;13.82;;
51764;SDS011;37835;53.256;6.456;2023-05-07T14:14:42;14.10;;;12.70;;
51764;SDS011;37835;53.256;6.456;2023-05-07T14:17:08;13.18;;;11.80;;
51764;SDS011;37835;53.256;6.456;2023-05-07T14:19:33;12.43;;;11.25;;
51764;SDS011;37835;53.256;6.456;2023-05-07T14:21:59;13.18;;;11.90;;
51764;SDS011;37835;53.256;6.456;2023-05-07T14:24:24;17.30;;;12.90;;
51764;SDS011;37835;53.256;6.456;2023-05-07T14:26:50;14.52;;;12.25;;
51764;SDS011;37835;53.256;6.456;2023-05-07T14:29:16;12.38;;;11.27;;
51764;SDS011;37835;53.256;6.456;2023-05-07T14:31:44;13.10;;;11.30;;
51764;SDS011;37835;53.256;6.456;2023-05-07T14:34:10;12.55;;;11.32;;
51764;SDS011;37835;53.256;6.456;2023-05-07T14:36:37;13.13;;;11.77;;
51764;SDS011;37835;53.256;6.456;2023-05-07T14:39:05;13.05;;;11.85;;
51764;SDS011;37835;53.256;6.456;2023-05-07T14:41:31;14.00;;;12.80;;